createdAt,value
2023-03-07T00:02:25.912Z,11.70
2023-03-07T00:07:28.832Z,9.10
2023-03-07T00:12:31.616Z,7.27
2023-03-07T00:17:37.398Z,7.77
2023-03-07T00:22:40.262Z,8.53
2023-03-07T00:27:43.204Z,7.77
2023-03-07T05:31:38.719Z,5.90
2023-03-07T05:36:41.685Z,5.07
2023-03-07T05:41:44.635Z,4.50
2023-03-07T05:46:47.452Z,4.87
2023-03-07T05:51:50.280Z,5.53
2023-03-07T05:56:53.152Z,5.93
2023-03-07T06:01:56.002Z,6.80
2023-03-07T06:06:59.927Z,7.27
2023-03-07T06:12:02.771Z,8.03
2023-03-07T06:17:06.063Z,7.80
2023-03-07T06:22:09.074Z,7.23
2023-03-07T06:27:11.909Z,8.07
2023-03-07T06:32:14.751Z,6.37
2023-03-07T06:37:17.592Z,5.97
2023-03-07T06:42:20.396Z,8.47
2023-03-07T06:47:23.190Z,7.60
2023-03-07T06:52:25.975Z,6.97
2023-03-07T06:57:29.400Z,9.07
2023-03-07T07:02:32.567Z,7.03
2023-03-07T07:07:35.457Z,7.73
2023-03-07T07:12:38.272Z,5.97
2023-03-07T07:17:41.064Z,6.80
2023-03-07T07:22:43.882Z,6.33
2023-03-07T07:27:46.720Z,6.60
2023-03-07T07:32:49.596Z,7.50
2023-03-07T07:37:52.520Z,6.73
2023-03-07T07:42:55.398Z,6.10
2023-03-07T07:47:58.214Z,6.47
2023-03-07T07:53:01.069Z,6.80
2023-03-07T07:58:03.985Z,5.90
2023-03-07T08:03:07.244Z,5.77
2023-03-07T08:08:10.084Z,5.03
2023-03-07T08:13:14.426Z,6.70
2023-03-07T08:18:17.241Z,6.07
2023-03-07T08:23:20.039Z,6.23
2023-03-07T08:28:22.837Z,5.83
2023-03-07T08:33:25.646Z,6.93
2023-03-07T08:38:28.407Z,5.53
2023-03-07T08:43:32.343Z,4.80
2023-03-07T08:48:35.462Z,6.17
2023-03-07T08:53:38.995Z,6.20
2023-03-07T08:58:42.003Z,6.23
2023-03-07T09:03:44.837Z,6.10
2023-03-07T09:08:48.108Z,5.73
2023-03-07T09:13:52.736Z,6.50
2023-03-07T09:18:55.992Z,7.53
2023-03-07T09:23:58.835Z,5.87
2023-03-07T09:29:01.715Z,7.90
2023-03-07T09:34:05.497Z,7.27
2023-03-07T09:39:08.567Z,6.33
2023-03-07T09:44:11.259Z,5.93
2023-03-07T09:49:28.302Z,4.57
2023-03-07T09:54:50.576Z,5.27
2023-03-07T09:59:57.098Z,5.03
2023-03-07T10:05:26.594Z,5.77
2023-03-07T10:10:44.477Z,4.30
2023-03-07T10:15:52.673Z,4.07
2023-03-07T10:21:24.321Z,3.60
2023-03-07T10:26:34.126Z,3.33
2023-03-07T10:31:42.823Z,3.60
2023-03-07T10:36:48.018Z,3.17
2023-03-07T10:41:51.805Z,4.37
2023-03-07T10:46:58.955Z,5.40
2023-03-07T10:52:22.723Z,4.73
2023-03-07T10:57:28.828Z,3.57
2023-03-07T11:02:44.824Z,3.43
2023-03-07T11:07:47.636Z,5.47
2023-03-07T11:12:50.429Z,4.13
2023-03-07T11:17:53.349Z,3.23
2023-03-07T11:23:26.051Z,3.70
2023-03-07T11:28:30.283Z,4.57
2023-03-07T11:33:58.710Z,4.83
2023-03-07T11:39:14.492Z,4.20
2023-03-07T11:44:32.006Z,4.13
2023-03-07T11:49:55.566Z,3.70
2023-03-07T11:55:30.508Z,4.13
2023-03-07T12:00:51.789Z,3.93
2023-03-07T12:06:08.528Z,3.93
2023-03-07T12:11:33.517Z,4.03
2023-03-07T12:16:43.251Z,4.70
2023-03-07T12:22:04.593Z,4.07
2023-03-07T12:27:20.054Z,3.90
2023-03-07T12:32:27.669Z,3.77
2023-03-07T12:38:13.076Z,5.67
2023-03-07T12:43:32.323Z,4.77
2023-03-07T12:49:02.518Z,4.97
2023-03-07T12:54:14.693Z,4.10
2023-03-07T12:59:17.616Z,5.77
2023-03-07T13:04:27.647Z,5.10
2023-03-07T13:09:33.418Z,4.47
2023-03-07T13:14:41.616Z,4.93
2023-03-07T13:19:52.267Z,4.47
2023-03-07T13:25:17.730Z,4.77
2023-03-07T13:30:24.192Z,5.87
2023-03-07T13:35:33.568Z,5.63
2023-03-07T13:40:37.051Z,4.07
2023-03-07T13:45:39.884Z,5.90
2023-03-07T13:50:42.996Z,4.57
2023-03-07T13:55:53.123Z,4.40
2023-03-07T14:00:59.530Z,4.90
2023-03-07T14:06:32.919Z,3.27
2023-03-07T14:11:51.588Z,4.67
2023-03-07T14:17:11.159Z,3.90
2023-03-07T14:22:35.663Z,4.30
2023-03-07T14:27:50.785Z,4.87
2023-03-07T14:32:53.720Z,5.30
2023-03-07T14:37:56.707Z,5.43
2023-03-07T14:43:17.521Z,4.60
2023-03-07T14:48:42.319Z,6.50
2023-03-07T14:53:45.174Z,4.80
2023-03-07T14:58:57.669Z,4.30
2023-03-07T15:04:00.489Z,5.60
2023-03-07T15:09:04.983Z,5.17
2023-03-07T15:14:13.863Z,4.73
2023-03-07T15:19:38.478Z,5.50
2023-03-07T15:24:44.850Z,5.13
2023-03-07T15:29:48.781Z,5.90
2023-03-07T15:35:02.355Z,5.00
2023-03-07T15:40:08.269Z,5.20
2023-03-07T15:45:29.552Z,5.77
2023-03-07T15:50:32.395Z,6.73
2023-03-07T15:55:35.779Z,5.03
2023-03-07T16:00:40.800Z,5.43
2023-03-07T16:05:43.983Z,5.37
2023-03-07T16:10:50.017Z,4.90
2023-03-07T16:16:06.188Z,5.83
2023-03-07T16:21:14.240Z,6.13
2023-03-07T16:26:23.157Z,6.17
2023-03-07T16:31:26.064Z,5.57
2023-03-07T16:36:28.828Z,4.87
2023-03-07T16:41:31.549Z,5.00
2023-03-07T16:46:35.997Z,5.53
2023-03-07T16:51:38.770Z,6.30
2023-03-07T16:56:48.180Z,5.53
2023-03-07T17:01:52.159Z,6.27
2023-03-07T17:07:04.378Z,6.03
2023-03-07T17:12:07.943Z,6.43
2023-03-07T17:17:25.938Z,6.53
2023-03-07T17:22:28.778Z,7.03
2023-03-07T17:27:32.816Z,7.23
2023-03-07T17:32:35.625Z,6.90
2023-03-07T17:37:38.472Z,6.87
2023-03-07T17:42:42.376Z,7.57
2023-03-07T17:47:45.232Z,7.07
2023-03-07T17:52:48.055Z,7.10
2023-03-07T17:57:51.024Z,6.53
2023-03-07T18:02:53.838Z,8.60
2023-03-07T18:07:56.875Z,7.60
2023-03-07T18:12:59.705Z,8.10
2023-03-07T18:18:03.888Z,8.47
2023-03-07T18:23:06.681Z,8.43
2023-03-07T18:28:09.423Z,8.37
2023-03-07T18:33:12.203Z,8.40
2023-03-07T18:38:14.947Z,7.93
2023-03-07T18:43:17.754Z,8.67
2023-03-07T18:48:20.535Z,8.00
2023-03-07T18:53:23.306Z,7.50
2023-03-07T18:58:26.362Z,8.37
2023-03-07T19:03:31.308Z,8.60
2023-03-07T19:08:34.262Z,8.60
2023-03-07T19:13:37.336Z,8.23
2023-03-07T19:18:40.649Z,8.93
2023-03-07T19:23:43.485Z,7.80
2023-03-07T19:28:47.987Z,10.30
2023-03-07T19:33:51.610Z,7.20
2023-03-07T19:38:56.520Z,9.13
2023-03-07T19:44:00.466Z,8.53
2023-03-07T19:49:03.513Z,9.37
2023-03-07T19:54:06.437Z,8.03
2023-03-07T19:59:09.264Z,8.77
2023-03-07T20:04:13.886Z,8.90
2023-03-07T20:09:16.693Z,8.00
2023-03-07T20:14:19.613Z,8.27
2023-03-07T20:19:22.732Z,6.13
2023-03-07T20:24:25.564Z,8.53
2023-03-07T20:29:28.501Z,7.23
2023-03-07T20:34:31.259Z,6.10
2023-03-07T20:39:34.169Z,6.63
2023-03-07T20:44:37.032Z,7.87
2023-03-07T20:49:39.795Z,7.33
2023-03-07T20:54:44.212Z,7.33
2023-03-07T20:59:47.166Z,6.20
2023-03-07T21:04:50.057Z,7.30
2023-03-07T21:09:52.818Z,6.03
2023-03-07T21:14:55.604Z,7.87
2023-03-07T21:19:58.360Z,7.63
2023-03-07T21:25:01.095Z,5.93
2023-03-07T21:30:04.571Z,6.70
2023-03-07T21:35:08.095Z,6.23
2023-03-07T21:40:11.806Z,6.90
2023-03-07T21:45:14.617Z,7.23
2023-03-07T21:50:17.753Z,7.27
2023-03-07T21:55:20.602Z,7.67
2023-03-07T22:00:23.743Z,7.73
2023-03-07T22:05:26.561Z,7.23
2023-03-07T22:10:29.324Z,7.40
2023-03-07T22:15:32.161Z,5.87
2023-03-07T22:20:34.971Z,5.00
2023-03-07T22:25:37.727Z,6.30
2023-03-07T22:30:40.448Z,5.17
2023-03-07T22:35:43.253Z,4.93
2023-03-07T22:40:46.064Z,6.00
2023-03-07T22:45:50.698Z,6.37
2023-03-07T22:50:53.733Z,6.97
2023-03-07T22:55:59.132Z,6.57
2023-03-07T23:01:01.873Z,5.67
2023-03-07T23:06:04.731Z,5.17
2023-03-07T23:11:09.105Z,5.50
2023-03-07T23:16:17.765Z,5.50
2023-03-07T23:21:22.136Z,6.43
2023-03-07T23:26:31.153Z,5.33
2023-03-07T23:31:39.177Z,6.30
2023-03-07T23:36:41.984Z,6.83
2023-03-07T23:41:44.747Z,6.23
2023-03-07T23:46:47.557Z,6.20
2023-03-07T23:51:50.321Z,5.03
2023-03-07T23:56:53.112Z,6.60
